sensor_id;sensor_type;location;lat;lon;timestamp;noise_LAeq;noise_LA_min;noise_LA_max;noise_LA01;noise_LA95
74496;Laerm;62979;55.720;37.606;2022-12-05T00:01:14;47.49;42.71;51.90;;
74496;Laerm;62979;55.720;37.606;2022-12-05T00:03:44;47.67;42.83;52.85;;
74496;Laerm;62979;55.720;37.606;2022-12-05T00:06:11;48.90;41.75;59.97;;
74496;Laerm;62979;55.720;37.606;2022-12-05T00:08:41;47.41;42.22;53.06;;
74496;Laerm;62979;55.720;37.606;2022-12-05T00:11:13;48.07;42.32;54.87;;
74496;Laerm;62979;55.720;37.606;2022-12-05T00:13:41;47.83;42.22;52.49;;
74496;Laerm;62979;55.720;37.606;2022-12-05T00:16:11;46.99;41.60;51.68;;
74496;Laerm;62979;55.720;37.606;2022-12-05T00:18:38;47.30;41.63;53.04;;
74496;Laerm;62979;55.720;37.606;2022-12-05T00:21:12;47.70;42.20;54.65;;
74496;Laerm;62979;55.720;37.606;2022-12-05T00:23:40;47.34;41.76;53.88;;
74496;Laerm;62979;55.720;37.606;2022-12-05T00:26:08;48.25;42.10;55.98;;
74496;Laerm;62979;55.720;37.606;2022-12-05T00:28:36;48.05;40.38;57.69;;
74496;Laerm;62979;55.720;37.606;2022-12-05T00:31:04;47.47;42.08;55.27;;
74496;Laerm;62979;55.720;37.606;2022-12-05T00:33:31;46.37;41.65;51.14;;
74496;Laerm;62979;55.720;37.606;2022-12-05T00:36:01;46.68;41.74;52.46;;
74496;Laerm;62979;55.720;37.606;2022-12-05T00:38:30;46.58;40.65;53.50;;
74496;Laerm;62979;55.720;37.606;2022-12-05T00:41:02;46.68;41.99;51.64;;
74496;Laerm;62979;55.720;37.606;2022-12-05T00:43:29;46.96;42.43;53.21;;
74496;Laerm;62979;55.720;37.606;2022-12-05T00:46:00;47.72;42.66;53.49;;
74496;Laerm;62979;55.720;37.606;2022-12-05T00:48:27;47.11;42.23;52.71;;
74496;Laerm;62979;55.720;37.606;2022-12-05T00:51:00;47.63;42.29;54.00;;
74496;Laerm;62979;55.720;37.606;2022-12-05T00:53:27;47.62;43.06;53.06;;
74496;Laerm;62979;55.720;37.606;2022-12-05T00:56:00;47.08;41.93;52.39;;
74496;Laerm;62979;55.720;37.606;2022-12-05T00:58:27;48.04;42.26;56.48;;
74496;Laerm;62979;55.720;37.606;2022-12-05T01:00:54;47.18;41.61;53.46;;
74496;Laerm;62979;55.720;37.606;2022-12-05T01:03:21;49.44;41.26;61.60;;
74496;Laerm;62979;55.720;37.606;2022-12-05T01:05:48;46.93;41.68;51.58;;
74496;Laerm;62979;55.720;37.606;2022-12-05T01:08:15;47.40;41.65;54.93;;
74496;Laerm;62979;55.720;37.606;2022-12-05T01:10:51;47.38;42.10;55.32;;
74496;Laerm;62979;55.720;37.606;2022-12-05T01:13:20;47.66;42.37;53.85;;
74496;Laerm;62979;55.720;37.606;2022-12-05T01:15:47;46.43;42.01;51.58;;
74496;Laerm;62979;55.720;37.606;2022-12-05T01:18:15;47.36;43.15;53.03;;
74496;Laerm;62979;55.720;37.606;2022-12-05T01:20:42;47.55;42.14;61.22;;
74496;Laerm;62979;55.720;37.606;2022-12-05T01:23:10;49.19;42.18;60.34;;
74496;Laerm;62979;55.720;37.606;2022-12-05T01:25:39;49.29;42.02;62.38;;
74496;Laerm;62979;55.720;37.606;2022-12-05T01:28:07;48.07;42.09;54.18;;
74496;Laerm;62979;55.720;37.606;2022-12-05T01:30:38;54.36;40.96;74.51;;
74496;Laerm;62979;55.720;37.606;2022-12-05T01:33:06;47.95;42.42;54.21;;
74496;Laerm;62979;55.720;37.606;2022-12-05T01:35:35;48.25;42.26;54.80;;
74496;Laerm;62979;55.720;37.606;2022-12-05T01:38:02;48.21;42.30;55.34;;
74496;Laerm;62979;55.720;37.606;2022-12-05T01:40:30;47.62;42.81;52.61;;
74496;Laerm;62979;55.720;37.606;2022-12-05T01:42:58;48.62;42.69;59.34;;
74496;Laerm;62979;55.720;37.606;2022-12-05T01:45:33;47.44;42.70;53.01;;
74496;Laerm;62979;55.720;37.606;2022-12-05T01:48:05;48.06;42.60;54.65;;
74496;Laerm;62979;55.720;37.606;2022-12-05T01:50:34;48.73;42.07;55.97;;
74496;Laerm;62979;55.720;37.606;2022-12-05T01:53:03;48.26;43.23;53.60;;
74496;Laerm;62979;55.720;37.606;2022-12-05T01:55:31;47.99;43.27;64.93;;
74496;Laerm;62979;55.720;37.606;2022-12-05T01:58:02;48.43;43.02;53.50;;
74496;Laerm;62979;55.720;37.606;2022-12-05T02:00:31;47.92;42.78;52.64;;
74496;Laerm;62979;55.720;37.606;2022-12-05T02:03:05;52.98;44.24;64.86;;
74496;Laerm;62979;55.720;37.606;2022-12-05T02:05:35;48.10;43.74;52.32;;
74496;Laerm;62979;55.720;37.606;2022-12-05T02:08:06;48.82;43.21;60.27;;
74496;Laerm;62979;55.720;37.606;2022-12-05T02:10:38;49.81;43.43;62.74;;
74496;Laerm;62979;55.720;37.606;2022-12-05T02:13:33;51.29;44.36;63.74;;
74496;Laerm;62979;55.720;37.606;2022-12-05T02:16:11;47.50;42.62;52.11;;
74496;Laerm;62979;55.720;37.606;2022-12-05T02:19:09;48.43;42.70;56.89;;
74496;Laerm;62979;55.720;37.606;2022-12-05T02:22:11;48.96;42.66;55.49;;
74496;Laerm;62979;55.720;37.606;2022-12-05T02:25:12;49.31;44.19;56.59;;
74496;Laerm;62979;55.720;37.606;2022-12-05T02:28:06;47.92;43.50;52.00;;
74496;Laerm;62979;55.720;37.606;2022-12-05T02:30:40;53.25;43.89;66.54;;
74496;Laerm;62979;55.720;37.606;2022-12-05T02:33:20;49.17;43.55;58.27;;
74496;Laerm;62979;55.720;37.606;2022-12-05T02:35:58;50.58;44.64;72.01;;
74496;Laerm;62979;55.720;37.606;2022-12-05T02:38:35;48.93;43.58;54.11;;
74496;Laerm;62979;55.720;37.606;2022-12-05T02:41:15;49.29;44.54;54.85;;
74496;Laerm;62979;55.720;37.606;2022-12-05T02:43:51;48.91;43.46;54.50;;
74496;Laerm;62979;55.720;37.606;2022-12-05T02:46:25;49.18;44.27;55.56;;
74496;Laerm;62979;55.720;37.606;2022-12-05T02:48:56;50.18;44.83;56.11;;
74496;Laerm;62979;55.720;37.606;2022-12-05T02:51:30;49.92;45.13;55.91;;
74496;Laerm;62979;55.720;37.606;2022-12-05T02:54:04;51.20;44.97;60.00;;
74496;Laerm;62979;55.720;37.606;2022-12-05T02:56:35;49.75;44.46;60.14;;
74496;Laerm;62979;55.720;37.606;2022-12-05T02:59:03;50.93;44.84;60.29;;
74496;Laerm;62979;55.720;37.606;2022-12-05T03:01:32;50.30;44.67;59.15;;
74496;Laerm;62979;55.720;37.606;2022-12-05T03:04:03;49.70;45.00;53.82;;
74496;Laerm;62979;55.720;37.606;2022-12-05T03:06:36;50.86;45.29;58.10;;
74496;Laerm;62979;55.720;37.606;2022-12-05T03:09:11;50.15;44.95;58.73;;
74496;Laerm;62979;55.720;37.606;2022-12-05T03:11:44;49.65;44.25;54.80;;
74496;Laerm;62979;55.720;37.606;2022-12-05T03:14:18;49.57;45.39;53.88;;
74496;Laerm;62979;55.720;37.606;2022-12-05T03:16:54;50.87;46.16;56.44;;
74496;Laerm;62979;55.720;37.606;2022-12-05T03:19:26;50.44;45.71;54.44;;
74496;Laerm;62979;55.720;37.606;2022-12-05T03:22:01;53.01;46.58;64.26;;
74496;Laerm;62979;55.720;37.606;2022-12-05T03:24:30;53.12;46.30;66.28;;
74496;Laerm;62979;55.720;37.606;2022-12-05T03:27:08;50.64;44.60;57.80;;
74496;Laerm;62979;55.720;37.606;2022-12-05T03:29:47;53.35;46.07;64.68;;
74496;Laerm;62979;55.720;37.606;2022-12-05T03:32:24;51.31;45.51;58.97;;
74496;Laerm;62979;55.720;37.606;2022-12-05T03:35:04;54.09;46.48;63.66;;
74496;Laerm;62979;55.720;37.606;2022-12-05T03:37:43;51.44;46.12;60.70;;
74496;Laerm;62979;55.720;37.606;2022-12-05T03:40:25;51.89;46.52;58.35;;
74496;Laerm;62979;55.720;37.606;2022-12-05T03:43:00;51.35;46.37;57.78;;
74496;Laerm;62979;55.720;37.606;2022-12-05T03:45:37;55.27;47.68;64.27;;
74496;Laerm;62979;55.720;37.606;2022-12-05T03:48:13;51.64;46.61;61.85;;
74496;Laerm;62979;55.720;37.606;2022-12-05T03:50:46;51.09;46.43;59.00;;
74496;Laerm;62979;55.720;37.606;2022-12-05T03:53:19;54.18;48.18;61.38;;
74496;Laerm;62979;55.720;37.606;2022-12-05T03:55:58;54.21;47.84;65.91;;
74496;Laerm;62979;55.720;37.606;2022-12-05T03:58:33;53.22;47.24;71.43;;
74496;Laerm;62979;55.720;37.606;2022-12-05T04:01:05;52.95;46.98;65.24;;
74496;Laerm;62979;55.720;37.606;2022-12-05T04:03:41;55.34;47.57;68.44;;
74496;Laerm;62979;55.720;37.606;2022-12-05T04:06:21;52.63;47.25;60.25;;
74496;Laerm;62979;55.720;37.606;2022-12-05T04:08:56;52.00;46.73;62.18;;
74496;Laerm;62979;55.720;37.606;2022-12-05T04:11:31;55.53;48.23;64.60;;
74496;Laerm;62979;55.720;37.606;2022-12-05T04:14:05;52.33;46.87;63.48;;
74496;Laerm;62979;55.720;37.606;2022-12-05T04:16:41;55.06;48.34;63.67;;
74496;Laerm;62979;55.720;37.606;2022-12-05T04:19:34;55.86;49.69;64.07;;
74496;Laerm;62979;55.720;37.606;2022-12-05T04:22:22;56.34;48.94;68.84;;
74496;Laerm;62979;55.720;37.606;2022-12-05T04:24:52;52.88;47.10;61.88;;
74496;Laerm;62979;55.720;37.606;2022-12-05T04:27:47;53.81;47.22;62.35;;
74496;Laerm;62979;55.720;37.606;2022-12-05T04:30:20;55.08;49.03;64.04;;
74496;Laerm;62979;55.720;37.606;2022-12-05T04:32:57;54.70;47.11;64.56;;
74496;Laerm;62979;55.720;37.606;2022-12-05T04:35:33;56.54;49.13;63.83;;
74496;Laerm;62979;55.720;37.606;2022-12-05T04:38:08;55.66;48.50;63.39;;
74496;Laerm;62979;55.720;37.606;2022-12-05T04:40:42;55.38;48.57;64.79;;
74496;Laerm;62979;55.720;37.606;2022-12-05T04:43:15;56.92;50.03;63.88;;
74496;Laerm;62979;55.720;37.606;2022-12-05T04:45:46;55.67;49.54;62.99;;
74496;Laerm;62979;55.720;37.606;2022-12-05T04:48:16;56.69;50.55;63.63;;
74496;Laerm;62979;55.720;37.606;2022-12-05T04:50:50;56.35;50.48;65.23;;
74496;Laerm;62979;55.720;37.606;2022-12-05T04:53:21;56.04;48.51;66.00;;
74496;Laerm;62979;55.720;37.606;2022-12-05T04:55:53;55.77;51.06;65.32;;
74496;Laerm;62979;55.720;37.606;2022-12-05T04:58:25;58.42;50.92;66.70;;
74496;Laerm;62979;55.720;37.606;2022-12-05T05:01:10;57.11;49.85;67.20;;
74496;Laerm;62979;55.720;37.606;2022-12-05T05:03:45;60.16;51.47;74.97;;
74496;Laerm;62979;55.720;37.606;2022-12-05T05:06:17;63.56;50.09;83.78;;
74496;Laerm;62979;55.720;37.606;2022-12-05T05:08:51;59.72;53.24;68.28;;
74496;Laerm;62979;55.720;37.606;2022-12-05T05:11:21;58.88;51.26;68.31;;
74496;Laerm;62979;55.720;37.606;2022-12-05T05:13:49;58.98;53.53;69.31;;
74496;Laerm;62979;55.720;37.606;2022-12-05T05:16:19;58.91;53.20;66.63;;
74496;Laerm;62979;55.720;37.606;2022-12-05T05:18:48;58.59;51.93;66.95;;
74496;Laerm;62979;55.720;37.606;2022-12-05T05:21:22;59.40;52.48;73.85;;
74496;Laerm;62979;55.720;37.606;2022-12-05T05:23:50;60.44;54.74;67.96;;
74496;Laerm;62979;55.720;37.606;2022-12-05T05:26:18;61.20;54.91;69.75;;
74496;Laerm;62979;55.720;37.606;2022-12-05T05:28:46;61.84;55.25;76.27;;
74496;Laerm;62979;55.720;37.606;2022-12-05T05:31:15;59.53;51.82;66.93;;
74496;Laerm;62979;55.720;37.606;2022-12-05T05:33:43;60.40;53.28;69.82;;
74496;Laerm;62979;55.720;37.606;2022-12-05T05:36:12;57.66;52.00;75.51;;
74496;Laerm;62979;55.720;37.606;2022-12-05T05:38:44;59.91;52.63;73.17;;
74496;Laerm;62979;55.720;37.606;2022-12-05T05:41:13;59.89;51.28;67.37;;
74496;Laerm;62979;55.720;37.606;2022-12-05T05:43:42;58.98;51.19;68.44;;
74496;Laerm;62979;55.720;37.606;2022-12-05T05:46:10;60.31;54.60;69.33;;
74496;Laerm;62979;55.720;37.606;2022-12-05T05:48:38;59.35;51.67;70.89;;
74496;Laerm;62979;55.720;37.606;2022-12-05T05:51:08;60.16;53.76;68.82;;
74496;Laerm;62979;55.720;37.606;2022-12-05T05:53:37;59.07;53.27;67.26;;
74496;Laerm;62979;55.720;37.606;2022-12-05T05:56:08;59.31;53.40;66.50;;
74496;Laerm;62979;55.720;37.606;2022-12-05T05:58:36;58.56;53.00;64.95;;
74496;Laerm;62979;55.720;37.606;2022-12-05T06:01:03;58.86;53.79;65.82;;
74496;Laerm;62979;55.720;37.606;2022-12-05T06:03:30;59.01;52.36;68.79;;
74496;Laerm;62979;55.720;37.606;2022-12-05T06:06:00;59.54;52.54;67.06;;
74496;Laerm;62979;55.720;37.606;2022-12-05T06:08:28;58.66;52.23;72.71;;
74496;Laerm;62979;55.720;37.606;2022-12-05T06:10:55;58.85;52.85;65.19;;
74496;Laerm;62979;55.720;37.606;2022-12-05T06:13:24;59.61;53.61;77.70;;
74496;Laerm;62979;55.720;37.606;2022-12-05T06:15:51;57.26;52.18;63.63;;
74496;Laerm;62979;55.720;37.606;2022-12-05T06:18:18;58.89;52.29;71.37;;
74496;Laerm;62979;55.720;37.606;2022-12-05T06:20:52;62.11;51.16;85.00;;
74496;Laerm;62979;55.720;37.606;2022-12-05T06:23:19;58.64;52.01;68.17;;
74496;Laerm;62979;55.720;37.606;2022-12-05T06:25:47;58.06;51.49;73.77;;
74496;Laerm;62979;55.720;37.606;2022-12-05T06:28:15;58.69;52.48;67.51;;
74496;Laerm;62979;55.720;37.606;2022-12-05T06:30:43;59.54;52.21;67.44;;
74496;Laerm;62979;55.720;37.606;2022-12-05T06:33:11;58.52;51.73;67.68;;
74496;Laerm;62979;55.720;37.606;2022-12-05T06:35:39;59.13;53.11;65.55;;
74496;Laerm;62979;55.720;37.606;2022-12-05T06:38:06;58.66;51.79;64.71;;
74496;Laerm;62979;55.720;37.606;2022-12-05T06:40:34;58.30;51.10;71.40;;
74496;Laerm;62979;55.720;37.606;2022-12-05T06:43:01;57.83;50.51;67.69;;
74496;Laerm;62979;55.720;37.606;2022-12-05T06:45:28;59.51;53.79;67.73;;
74496;Laerm;62979;55.720;37.606;2022-12-05T06:47:56;58.52;50.26;65.46;;
74496;Laerm;62979;55.720;37.606;2022-12-05T06:50:23;58.09;50.93;68.56;;
74496;Laerm;62979;55.720;37.606;2022-12-05T06:52:50;58.97;51.44;65.37;;
74496;Laerm;62979;55.720;37.606;2022-12-05T06:55:17;57.34;50.43;74.13;;
74496;Laerm;62979;55.720;37.606;2022-12-05T06:57:44;63.10;50.70;75.26;;
74496;Laerm;62979;55.720;37.606;2022-12-05T07:00:13;56.92;49.54;68.27;;
74496;Laerm;62979;55.720;37.606;2022-12-05T07:02:59;56.14;49.55;68.33;;
74496;Laerm;62979;55.720;37.606;2022-12-05T07:05:26;56.82;50.91;67.52;;
74496;Laerm;62979;55.720;37.606;2022-12-05T07:07:53;58.34;48.27;71.83;;
74496;Laerm;62979;55.720;37.606;2022-12-05T07:10:20;60.68;54.27;74.83;;
74496;Laerm;62979;55.720;37.606;2022-12-05T07:12:47;59.07;50.36;71.94;;
74496;Laerm;62979;55.720;37.606;2022-12-05T07:15:14;58.45;51.64;69.35;;
74496;Laerm;62979;55.720;37.606;2022-12-05T07:17:41;57.31;50.94;68.09;;
74496;Laerm;62979;55.720;37.606;2022-12-05T07:20:10;57.32;50.61;65.46;;
74496;Laerm;62979;55.720;37.606;2022-12-05T07:22:42;57.78;49.04;68.20;;
74496;Laerm;62979;55.720;37.606;2022-12-05T07:25:10;58.03;52.35;64.78;;
74496;Laerm;62979;55.720;37.606;2022-12-05T07:27:37;59.93;49.97;66.59;;
74496;Laerm;62979;55.720;37.606;2022-12-05T07:30:06;57.50;48.35;64.06;;
74496;Laerm;62979;55.720;37.606;2022-12-05T07:32:33;57.09;50.07;64.66;;
74496;Laerm;62979;55.720;37.606;2022-12-05T07:35:00;56.97;51.14;64.75;;
74496;Laerm;62979;55.720;37.606;2022-12-05T07:37:29;59.00;49.30;69.72;;
74496;Laerm;62979;55.720;37.606;2022-12-05T07:39:56;58.01;50.51;73.02;;
74496;Laerm;62979;55.720;37.606;2022-12-05T07:42:23;56.24;50.56;63.66;;
74496;Laerm;62979;55.720;37.606;2022-12-05T07:44:50;57.90;51.50;66.13;;
74496;Laerm;62979;55.720;37.606;2022-12-05T07:47:17;57.35;50.87;66.69;;
74496;Laerm;62979;55.720;37.606;2022-12-05T07:49:44;57.85;51.28;74.28;;
74496;Laerm;62979;55.720;37.606;2022-12-05T07:52:11;57.42;52.45;71.85;;
74496;Laerm;62979;55.720;37.606;2022-12-05T07:54:39;57.98;50.80;68.04;;
74496;Laerm;62979;55.720;37.606;2022-12-05T07:57:06;57.04;49.77;63.60;;
74496;Laerm;62979;55.720;37.606;2022-12-05T07:59:33;58.82;50.93;66.14;;
74496;Laerm;62979;55.720;37.606;2022-12-05T08:02:00;58.62;50.42;73.20;;
74496;Laerm;62979;55.720;37.606;2022-12-05T08:04:27;57.34;49.31;63.79;;
74496;Laerm;62979;55.720;37.606;2022-12-05T08:06:54;56.37;49.70;73.77;;
74496;Laerm;62979;55.720;37.606;2022-12-05T08:09:21;57.47;47.57;69.21;;
74496;Laerm;62979;55.720;37.606;2022-12-05T08:11:51;59.79;51.05;70.84;;
74496;Laerm;62979;55.720;37.606;2022-12-05T08:14:18;58.81;50.61;65.10;;
74496;Laerm;62979;55.720;37.606;2022-12-05T08:16:45;57.79;48.63;69.89;;
74496;Laerm;62979;55.720;37.606;2022-12-05T08:19:12;57.88;50.09;65.34;;
74496;Laerm;62979;55.720;37.606;2022-12-05T08:21:41;58.02;52.69;66.15;;
74496;Laerm;62979;55.720;37.606;2022-12-05T08:24:10;57.96;49.65;66.90;;
74496;Laerm;62979;55.720;37.606;2022-12-05T08:26:38;57.55;49.69;67.33;;
74496;Laerm;62979;55.720;37.606;2022-12-05T08:29:09;56.12;49.20;69.32;;
74496;Laerm;62979;55.720;37.606;2022-12-05T08:31:42;56.90;49.03;64.52;;
74496;Laerm;62979;55.720;37.606;2022-12-05T08:34:11;57.15;50.46;69.65;;
74496;Laerm;62979;55.720;37.606;2022-12-05T08:36:39;56.63;49.78;63.20;;
74496;Laerm;62979;55.720;37.606;2022-12-05T08:39:09;58.34;52.12;72.73;;
74496;Laerm;62979;55.720;37.606;2022-12-05T08:41:39;56.79;49.60;65.83;;
74496;Laerm;62979;55.720;37.606;2022-12-05T08:44:09;56.88;50.16;66.85;;
74496;Laerm;62979;55.720;37.606;2022-12-05T08:46:42;59.85;50.04;70.96;;
74496;Laerm;62979;55.720;37.606;2022-12-05T08:49:10;57.02;50.16;67.18;;
74496;Laerm;62979;55.720;37.606;2022-12-05T08:51:38;58.04;50.08;66.45;;
74496;Laerm;62979;55.720;37.606;2022-12-05T08:54:06;56.77;49.31;65.40;;
74496;Laerm;62979;55.720;37.606;2022-12-05T08:56:34;58.44;47.47;75.66;;
74496;Laerm;62979;55.720;37.606;2022-12-05T08:59:03;57.99;49.67;67.53;;
74496;Laerm;62979;55.720;37.606;2022-12-05T09:01:33;57.41;48.41;71.84;;
74496;Laerm;62979;55.720;37.606;2022-12-05T09:04:04;60.06;50.49;75.56;;
74496;Laerm;62979;55.720;37.606;2022-12-05T09:06:32;55.90;48.65;63.16;;
74496;Laerm;62979;55.720;37.606;2022-12-05T09:09:03;57.84;49.72;70.31;;
74496;Laerm;62979;55.720;37.606;2022-12-05T09:11:33;57.64;51.81;71.47;;
74496;Laerm;62979;55.720;37.606;2022-12-05T09:14:02;57.42;49.35;66.14;;
74496;Laerm;62979;55.720;37.606;2022-12-05T09:16:33;56.31;49.72;65.41;;
74496;Laerm;62979;55.720;37.606;2022-12-05T09:19:01;55.67;48.08;66.48;;
74496;Laerm;62979;55.720;37.606;2022-12-05T09:21:30;56.19;49.06;68.56;;
74496;Laerm;62979;55.720;37.606;2022-12-05T09:23:58;55.62;47.02;69.44;;
74496;Laerm;62979;55.720;37.606;2022-12-05T09:26:27;56.99;48.75;77.21;;
74496;Laerm;62979;55.720;37.606;2022-12-05T09:28:56;57.10;48.21;65.19;;
74496;Laerm;62979;55.720;37.606;2022-12-05T09:31:25;56.63;48.15;65.28;;
74496;Laerm;62979;55.720;37.606;2022-12-05T09:33:54;57.55;49.98;70.34;;
74496;Laerm;62979;55.720;37.606;2022-12-05T09:36:24;58.03;50.75;68.44;;
74496;Laerm;62979;55.720;37.606;2022-12-05T09:38:53;57.31;48.19;70.65;;
74496;Laerm;62979;55.720;37.606;2022-12-05T09:41:46;58.22;51.03;77.50;;
74496;Laerm;62979;55.720;37.606;2022-12-05T09:44:43;56.88;49.16;72.95;;
74496;Laerm;62979;55.720;37.606;2022-12-05T09:47:25;58.98;49.70;72.68;;
74496;Laerm;62979;55.720;37.606;2022-12-05T09:50:00;57.50;50.65;65.48;;
74496;Laerm;62979;55.720;37.606;2022-12-05T09:52:31;56.83;51.04;65.38;;
74496;Laerm;62979;55.720;37.606;2022-12-05T09:55:04;57.19;50.55;68.49;;
74496;Laerm;62979;55.720;37.606;2022-12-05T09:57:39;56.42;50.11;63.73;;
74496;Laerm;62979;55.720;37.606;2022-12-05T10:00:10;56.00;48.26;66.55;;
74496;Laerm;62979;55.720;37.606;2022-12-05T10:02:49;56.33;47.84;63.69;;
74496;Laerm;62979;55.720;37.606;2022-12-05T10:05:28;58.73;49.21;72.58;;
74496;Laerm;62979;55.720;37.606;2022-12-05T10:08:11;57.44;49.22;66.36;;
74496;Laerm;62979;55.720;37.606;2022-12-05T10:10:49;57.30;49.53;66.58;;
74496;Laerm;62979;55.720;37.606;2022-12-05T10:13:45;55.83;49.35;68.94;;
74496;Laerm;62979;55.720;37.606;2022-12-05T10:16:31;55.49;47.84;66.46;;
74496;Laerm;62979;55.720;37.606;2022-12-05T10:19:08;56.31;49.53;63.98;;
74496;Laerm;62979;55.720;37.606;2022-12-05T10:21:50;55.86;48.32;64.69;;
74496;Laerm;62979;55.720;37.606;2022-12-05T10:24:30;57.09;49.13;66.06;;
74496;Laerm;62979;55.720;37.606;2022-12-05T10:27:03;56.73;48.87;68.79;;
74496;Laerm;62979;55.720;37.606;2022-12-05T10:29:37;55.66;48.11;69.66;;
74496;Laerm;62979;55.720;37.606;2022-12-05T10:32:14;57.03;49.42;66.64;;
74496;Laerm;62979;55.720;37.606;2022-12-05T10:34:44;59.44;48.89;80.57;;
74496;Laerm;62979;55.720;37.606;2022-12-05T10:37:16;55.82;49.11;63.61;;
74496;Laerm;62979;55.720;37.606;2022-12-05T10:39:44;56.85;50.73;66.51;;
74496;Laerm;62979;55.720;37.606;2022-12-05T10:42:16;57.25;50.71;71.21;;
74496;Laerm;62979;55.720;37.606;2022-12-05T10:44:47;55.12;47.80;70.07;;
74496;Laerm;62979;55.720;37.606;2022-12-05T10:47:16;57.08;50.30;76.21;;
74496;Laerm;62979;55.720;37.606;2022-12-05T10:49:44;58.07;50.39;67.99;;
74496;Laerm;62979;55.720;37.606;2022-12-05T10:52:13;56.28;48.70;65.74;;
74496;Laerm;62979;55.720;37.606;2022-12-05T10:54:46;56.26;47.91;70.63;;
74496;Laerm;62979;55.720;37.606;2022-12-05T10:57:24;54.96;47.31;64.40;;
74496;Laerm;62979;55.720;37.606;2022-12-05T10:59:52;57.85;50.46;69.42;;
74496;Laerm;62979;55.720;37.606;2022-12-05T11:02:25;56.38;49.39;64.40;;
74496;Laerm;62979;55.720;37.606;2022-12-05T11:04:54;56.99;49.20;64.77;;
74496;Laerm;62979;55.720;37.606;2022-12-05T11:07:29;58.28;51.69;68.81;;
74496;Laerm;62979;55.720;37.606;2022-12-05T11:09:58;56.89;50.41;64.14;;
74496;Laerm;62979;55.720;37.606;2022-12-05T11:12:29;58.34;48.45;68.02;;
74496;Laerm;62979;55.720;37.606;2022-12-05T11:15:19;57.84;48.63;78.26;;
74496;Laerm;62979;55.720;37.606;2022-12-05T11:17:50;58.78;50.85;76.36;;
74496;Laerm;62979;55.720;37.606;2022-12-05T11:20:38;54.98;47.08;70.25;;
74496;Laerm;62979;55.720;37.606;2022-12-05T11:23:23;58.28;50.18;75.80;;
74496;Laerm;62979;55.720;37.606;2022-12-05T11:25:52;57.92;50.20;76.27;;
74496;Laerm;62979;55.720;37.606;2022-12-05T11:28:38;55.47;49.76;62.96;;
74496;Laerm;62979;55.720;37.606;2022-12-05T11:31:22;58.06;50.64;66.62;;
74496;Laerm;62979;55.720;37.606;2022-12-05T11:34:02;58.65;49.64;64.94;;
74496;Laerm;62979;55.720;37.606;2022-12-05T11:36:38;57.35;50.23;68.69;;
74496;Laerm;62979;55.720;37.606;2022-12-05T11:39:09;57.13;51.22;67.73;;
74496;Laerm;62979;55.720;37.606;2022-12-05T11:42:02;57.02;48.65;67.52;;
74496;Laerm;62979;55.720;37.606;2022-12-05T11:44:54;57.71;50.12;70.41;;
74496;Laerm;62979;55.720;37.606;2022-12-05T11:47:49;56.44;49.00;63.08;;
74496;Laerm;62979;55.720;37.606;2022-12-05T11:50:39;58.73;50.27;65.55;;
74496;Laerm;62979;55.720;37.606;2022-12-05T11:53:39;56.83;48.23;66.06;;
74496;Laerm;62979;55.720;37.606;2022-12-05T11:56:28;55.87;48.47;65.50;;
74496;Laerm;62979;55.720;37.606;2022-12-05T11:59:28;58.53;50.12;70.11;;
74496;Laerm;62979;55.720;37.606;2022-12-05T12:02:17;56.69;49.24;73.10;;
74496;Laerm;62979;55.720;37.606;2022-12-05T12:05:00;56.08;48.18;64.08;;
74496;Laerm;62979;55.720;37.606;2022-12-05T12:07:50;55.91;48.10;64.55;;
74496;Laerm;62979;55.720;37.606;2022-12-05T12:10:32;57.51;49.54;68.77;;
74496;Laerm;62979;55.720;37.606;2022-12-05T12:13:26;57.16;49.19;66.04;;
74496;Laerm;62979;55.720;37.606;2022-12-05T12:16:11;58.21;48.52;70.42;;
74496;Laerm;62979;55.720;37.606;2022-12-05T12:19:11;57.62;50.29;70.49;;
74496;Laerm;62979;55.720;37.606;2022-12-05T12:22:05;58.01;50.33;69.40;;
74496;Laerm;62979;55.720;37.606;2022-12-05T12:24:57;57.32;49.45;64.46;;
74496;Laerm;62979;55.720;37.606;2022-12-05T12:27:40;56.94;49.55;64.26;;
74496;Laerm;62979;55.720;37.606;2022-12-05T12:30:19;55.25;48.02;63.38;;
74496;Laerm;62979;55.720;37.606;2022-12-05T12:32:58;56.51;49.07;70.72;;
74496;Laerm;62979;55.720;37.606;2022-12-05T12:35:31;55.86;48.16;63.33;;
74496;Laerm;62979;55.720;37.606;2022-12-05T12:41:07;56.99;49.49;73.85;;
74496;Laerm;62979;55.720;37.606;2022-12-05T12:43:54;57.85;48.47;67.34;;
74496;Laerm;62979;55.720;37.606;2022-12-05T12:46:42;58.20;51.12;75.66;;
74496;Laerm;62979;55.720;37.606;2022-12-05T12:49:40;60.38;49.32;79.30;;
74496;Laerm;62979;55.720;37.606;2022-12-05T12:52:20;63.12;53.20;80.90;;
74496;Laerm;62979;55.720;37.606;2022-12-05T12:55:20;61.41;52.90;79.27;;
74496;Laerm;62979;55.720;37.606;2022-12-05T12:58:06;57.33;51.71;71.41;;
74496;Laerm;62979;55.720;37.606;2022-12-05T13:00:49;55.94;50.20;66.42;;
74496;Laerm;62979;55.720;37.606;2022-12-05T13:03:26;56.84;50.39;64.03;;
74496;Laerm;62979;55.720;37.606;2022-12-05T13:06:00;58.90;49.35;68.18;;
74496;Laerm;62979;55.720;37.606;2022-12-05T13:08:35;57.69;49.34;69.96;;
74496;Laerm;62979;55.720;37.606;2022-12-05T13:11:08;59.76;51.22;75.19;;
74496;Laerm;62979;55.720;37.606;2022-12-05T13:13:42;56.70;49.70;70.91;;
74496;Laerm;62979;55.720;37.606;2022-12-05T13:16:22;57.15;52.10;63.74;;
74496;Laerm;62979;55.720;37.606;2022-12-05T13:18:52;57.07;51.41;68.48;;
74496;Laerm;62979;55.720;37.606;2022-12-05T13:21:20;58.19;53.21;67.11;;
74496;Laerm;62979;55.720;37.606;2022-12-05T13:23:52;58.16;50.61;75.24;;
74496;Laerm;62979;55.720;37.606;2022-12-05T13:26:21;58.00;52.63;71.19;;
74496;Laerm;62979;55.720;37.606;2022-12-05T13:28:52;61.14;50.39;73.06;;
74496;Laerm;62979;55.720;37.606;2022-12-05T13:31:35;57.43;50.45;71.41;;
74496;Laerm;62979;55.720;37.606;2022-12-05T13:34:04;58.49;50.96;73.25;;
74496;Laerm;62979;55.720;37.606;2022-12-05T13:36:39;56.41;49.58;69.35;;
74496;Laerm;62979;55.720;37.606;2022-12-05T13:39:24;58.28;51.56;68.02;;
74496;Laerm;62979;55.720;37.606;2022-12-05T13:42:21;58.16;50.61;68.75;;
74496;Laerm;62979;55.720;37.606;2022-12-05T13:44:54;56.49;50.12;63.64;;
74496;Laerm;62979;55.720;37.606;2022-12-05T13:47:30;58.53;51.71;67.93;;
74496;Laerm;62979;55.720;37.606;2022-12-05T13:50:11;57.40;51.37;65.08;;
74496;Laerm;62979;55.720;37.606;2022-12-05T13:52:46;57.89;52.19;66.58;;
74496;Laerm;62979;55.720;37.606;2022-12-05T13:55:25;60.48;53.64;77.06;;
74496;Laerm;62979;55.720;37.606;2022-12-05T13:57:54;60.06;53.08;75.32;;
74496;Laerm;62979;55.720;37.606;2022-12-05T14:00:28;56.09;51.81;63.07;;
74496;Laerm;62979;55.720;37.606;2022-12-05T14:03:06;56.19;51.05;61.75;;
74496;Laerm;62979;55.720;37.606;2022-12-05T14:05:46;57.91;51.28;75.75;;
74496;Laerm;62979;55.720;37.606;2022-12-05T14:08:52;58.27;50.62;69.47;;
74496;Laerm;62979;55.720;37.606;2022-12-05T14:11:20;60.42;51.72;73.36;;